Cedar Lake, Indiana
Current Conditions -  °F | °C
As of 11:35 PM on Tuesday 25 Nov 2014 (Local Time) from KIGQ Reporting Station
Overcast Overcast  
Wind Chill: 16°   Ceiling: 1200
Heat Index: 23°   Visibility: 10mi
Dew Point: 19°   Wind: 6mph
Humidity: 84%   Direction: 210°SSW
Pressure: 30.2"   Gusts: NA
Location:  41.37°N, 87.42°W
Report Text: KIGQ 260535Z AUTO 21005KT 10SM OVC012 M05/M07 A3020 RMK AO2 T10481071
Loading
Personal Weather Stations






























Interactive Weather Map New forecast layout! Learn more

10-Day Weather Forecast

Advertisements
Track Severe Weather on mobile